ILG weather

New Castle Airport
Wilmington, Delaware, United States

Public forecast

Using degrees Fahrenheit for public forecast. Weather courtesy of forecast.io.

Current aviation weather report (METAR) for New Castle Airport

Retrieved 2019/12/11 23:51 UTC (41 minutes ago):

KILG 112351Z 26005KT 10SM CLR 00/M08 A3043 RMK AO2 SLP307 T00001083 10050 20000 51027

Aviation forecast (TAF) for New Castle Airport

Retrieved 2019-12-12 00:40 UTC (0 seconds ago):

TAF KILG 112338Z 1200/1224 27005KT P6SM SKC FM120400 32005KT P6SM SKC FM120900 35005KT P6SM SKC FM122100 15004KT P6SM SKC